sensor_id;sensor_type;location;lat;lon;timestamp;temperature;humidity
63445;DHT22;49573;47.682;9.170;2024-01-30T00:01:47;2.10;88.20
63445;DHT22;49573;47.682;9.170;2024-01-30T00:04:34;2.00;88.00
63445;DHT22;49573;47.682;9.170;2024-01-30T00:07:20;1.90;88.30
63445;DHT22;49573;47.682;9.170;2024-01-30T00:10:06;1.90;88.30
63445;DHT22;49573;47.682;9.170;2024-01-30T00:12:52;2.00;88.70
63445;DHT22;49573;47.682;9.170;2024-01-30T00:15:38;2.10;88.30
63445;DHT22;49573;47.682;9.170;2024-01-30T00:18:24;2.00;88.00
63445;DHT22;49573;47.682;9.170;2024-01-30T00:21:11;2.00;88.40
63445;DHT22;49573;47.682;9.170;2024-01-30T00:23:57;1.80;88.30
63445;DHT22;49573;47.682;9.170;2024-01-30T00:26:43;1.80;88.00
63445;DHT22;49573;47.682;9.170;2024-01-30T00:29:29;1.70;88.20
63445;DHT22;49573;47.682;9.170;2024-01-30T00:32:18;1.40;88.20
63445;DHT22;49573;47.682;9.170;2024-01-30T00:35:05;1.50;88.20
63445;DHT22;49573;47.682;9.170;2024-01-30T00:37:52;1.40;88.60
63445;DHT22;49573;47.682;9.170;2024-01-30T00:40:38;1.20;88.90
63445;DHT22;49573;47.682;9.170;2024-01-30T00:43:24;1.30;89.10
63445;DHT22;49573;47.682;9.170;2024-01-30T00:46:12;1.30;88.70
63445;DHT22;49573;47.682;9.170;2024-01-30T00:48:58;1.30;88.50
63445;DHT22;49573;47.682;9.170;2024-01-30T00:51:44;1.20;88.50
63445;DHT22;49573;47.682;9.170;2024-01-30T00:54:31;1.30;88.80
63445;DHT22;49573;47.682;9.170;2024-01-30T00:57:17;1.20;89.30
63445;DHT22;49573;47.682;9.170;2024-01-30T01:00:03;1.30;89.10
63445;DHT22;49573;47.682;9.170;2024-01-30T01:02:51;1.40;89.20
63445;DHT22;49573;47.682;9.170;2024-01-30T01:05:37;1.50;89.20
63445;DHT22;49573;47.682;9.170;2024-01-30T01:08:23;1.60;89.10
63445;DHT22;49573;47.682;9.170;2024-01-30T01:11:10;1.50;88.80
63445;DHT22;49573;47.682;9.170;2024-01-30T01:13:56;1.50;88.90
63445;DHT22;49573;47.682;9.170;2024-01-30T01:16:42;1.50;88.60
63445;DHT22;49573;47.682;9.170;2024-01-30T01:19:28;1.50;88.50
63445;DHT22;49573;47.682;9.170;2024-01-30T01:22:15;1.50;88.50
63445;DHT22;49573;47.682;9.170;2024-01-30T01:25:01;1.60;88.50
63445;DHT22;49573;47.682;9.170;2024-01-30T01:27:48;1.50;88.50
63445;DHT22;49573;47.682;9.170;2024-01-30T01:30:37;1.30;88.30
63445;DHT22;49573;47.682;9.170;2024-01-30T01:33:23;1.30;88.20
63445;DHT22;49573;47.682;9.170;2024-01-30T01:36:09;1.20;88.20
63445;DHT22;49573;47.682;9.170;2024-01-30T01:38:55;1.10;88.40
63445;DHT22;49573;47.682;9.170;2024-01-30T01:41:41;1.20;88.20
63445;DHT22;49573;47.682;9.170;2024-01-30T01:44:28;1.20;88.30
63445;DHT22;49573;47.682;9.170;2024-01-30T01:47:14;1.10;88.50
63445;DHT22;49573;47.682;9.170;2024-01-30T01:50:00;1.20;88.60
63445;DHT22;49573;47.682;9.170;2024-01-30T01:52:47;1.20;89.00
63445;DHT22;49573;47.682;9.170;2024-01-30T01:55:33;1.20;88.90
63445;DHT22;49573;47.682;9.170;2024-01-30T01:58:19;1.20;88.90
63445;DHT22;49573;47.682;9.170;2024-01-30T02:01:07;1.30;88.80
63445;DHT22;49573;47.682;9.170;2024-01-30T02:03:53;1.30;88.70
63445;DHT22;49573;47.682;9.170;2024-01-30T02:06:39;1.20;88.60
63445;DHT22;49573;47.682;9.170;2024-01-30T02:09:25;1.30;88.30
63445;DHT22;49573;47.682;9.170;2024-01-30T02:12:11;1.20;88.20
63445;DHT22;49573;47.682;9.170;2024-01-30T02:14:57;1.20;88.60
63445;DHT22;49573;47.682;9.170;2024-01-30T02:17:44;1.20;88.60
63445;DHT22;49573;47.682;9.170;2024-01-30T02:20:30;1.10;88.70
63445;DHT22;49573;47.682;9.170;2024-01-30T02:23:18;1.10;88.80
63445;DHT22;49573;47.682;9.170;2024-01-30T02:26:05;1.10;89.00
63445;DHT22;49573;47.682;9.170;2024-01-30T02:28:51;1.10;89.30
63445;DHT22;49573;47.682;9.170;2024-01-30T02:31:36;1.20;89.30
63445;DHT22;49573;47.682;9.170;2024-01-30T02:34:23;1.10;89.40
63445;DHT22;49573;47.682;9.170;2024-01-30T02:37:09;1.20;89.30
63445;DHT22;49573;47.682;9.170;2024-01-30T02:39:56;1.20;89.30
63445;DHT22;49573;47.682;9.170;2024-01-30T02:42:42;1.20;89.70
63445;DHT22;49573;47.682;9.170;2024-01-30T02:45:28;1.20;89.70
63445;DHT22;49573;47.682;9.170;2024-01-30T02:48:14;1.30;89.60
63445;DHT22;49573;47.682;9.170;2024-01-30T02:51:00;1.20;89.60
63445;DHT22;49573;47.682;9.170;2024-01-30T02:53:46;1.10;89.60
63445;DHT22;49573;47.682;9.170;2024-01-30T02:56:33;1.10;89.70
63445;DHT22;49573;47.682;9.170;2024-01-30T02:59:19;1.20;89.90
63445;DHT22;49573;47.682;9.170;2024-01-30T03:02:05;1.10;89.70
63445;DHT22;49573;47.682;9.170;2024-01-30T03:04:50;1.10;90.20
63445;DHT22;49573;47.682;9.170;2024-01-30T03:07:36;1.10;90.00
63445;DHT22;49573;47.682;9.170;2024-01-30T03:10:22;1.20;90.10
63445;DHT22;49573;47.682;9.170;2024-01-30T03:13:09;1.30;89.90
63445;DHT22;49573;47.682;9.170;2024-01-30T03:15:55;1.20;89.80
63445;DHT22;49573;47.682;9.170;2024-01-30T03:18:41;1.30;89.80
63445;DHT22;49573;47.682;9.170;2024-01-30T03:21:27;1.30;89.70
63445;DHT22;49573;47.682;9.170;2024-01-30T03:24:13;1.30;89.10
63445;DHT22;49573;47.682;9.170;2024-01-30T03:26:59;1.30;89.20
63445;DHT22;49573;47.682;9.170;2024-01-30T03:29:46;1.20;89.40
63445;DHT22;49573;47.682;9.170;2024-01-30T03:32:32;1.20;89.60
63445;DHT22;49573;47.682;9.170;2024-01-30T03:35:18;1.00;89.40
63445;DHT22;49573;47.682;9.170;2024-01-30T03:38:04;1.00;90.00
63445;DHT22;49573;47.682;9.170;2024-01-30T03:40:50;1.10;90.30
63445;DHT22;49573;47.682;9.170;2024-01-30T03:43:36;1.30;89.80
63445;DHT22;49573;47.682;9.170;2024-01-30T03:46:23;1.20;89.50
63445;DHT22;49573;47.682;9.170;2024-01-30T03:49:09;1.20;89.40
63445;DHT22;49573;47.682;9.170;2024-01-30T03:51:55;1.10;89.80
63445;DHT22;49573;47.682;9.170;2024-01-30T03:54:41;1.20;89.80
63445;DHT22;49573;47.682;9.170;2024-01-30T03:57:27;1.20;89.80
63445;DHT22;49573;47.682;9.170;2024-01-30T04:00:14;1.10;89.50
63445;DHT22;49573;47.682;9.170;2024-01-30T04:03:01;1.00;89.70
63445;DHT22;49573;47.682;9.170;2024-01-30T04:05:47;1.00;89.70
63445;DHT22;49573;47.682;9.170;2024-01-30T04:08:33;1.00;89.90
63445;DHT22;49573;47.682;9.170;2024-01-30T04:11:19;1.10;90.00
63445;DHT22;49573;47.682;9.170;2024-01-30T04:14:05;1.00;89.80
63445;DHT22;49573;47.682;9.170;2024-01-30T04:16:51;1.10;90.00
63445;DHT22;49573;47.682;9.170;2024-01-30T04:19:38;1.10;89.60
63445;DHT22;49573;47.682;9.170;2024-01-30T04:22:24;1.20;89.70
63445;DHT22;49573;47.682;9.170;2024-01-30T04:25:10;1.10;89.70
63445;DHT22;49573;47.682;9.170;2024-01-30T04:27:56;1.20;89.60
63445;DHT22;49573;47.682;9.170;2024-01-30T04:30:42;1.00;89.00
63445;DHT22;49573;47.682;9.170;2024-01-30T04:33:28;1.00;89.10
63445;DHT22;49573;47.682;9.170;2024-01-30T04:36:15;0.80;89.20
63445;DHT22;49573;47.682;9.170;2024-01-30T04:39:01;0.80;89.40
63445;DHT22;49573;47.682;9.170;2024-01-30T04:41:47;0.80;89.20
63445;DHT22;49573;47.682;9.170;2024-01-30T04:44:34;0.80;89.30
63445;DHT22;49573;47.682;9.170;2024-01-30T04:47:19;0.70;89.10
63445;DHT22;49573;47.682;9.170;2024-01-30T04:50:06;0.80;89.50
63445;DHT22;49573;47.682;9.170;2024-01-30T04:52:53;0.80;89.30
63445;DHT22;49573;47.682;9.170;2024-01-30T04:55:39;0.60;89.20
63445;DHT22;49573;47.682;9.170;2024-01-30T04:58:25;0.50;89.70
63445;DHT22;49573;47.682;9.170;2024-01-30T05:01:14;0.50;89.50
63445;DHT22;49573;47.682;9.170;2024-01-30T05:04:00;0.40;89.60
63445;DHT22;49573;47.682;9.170;2024-01-30T05:06:46;0.50;89.70
63445;DHT22;49573;47.682;9.170;2024-01-30T05:09:33;0.40;89.20
63445;DHT22;49573;47.682;9.170;2024-01-30T05:12:19;0.50;89.40
63445;DHT22;49573;47.682;9.170;2024-01-30T05:15:05;0.50;89.00
63445;DHT22;49573;47.682;9.170;2024-01-30T05:17:52;0.50;89.00
63445;DHT22;49573;47.682;9.170;2024-01-30T05:20:37;0.40;89.10
63445;DHT22;49573;47.682;9.170;2024-01-30T05:23:23;0.40;89.40
63445;DHT22;49573;47.682;9.170;2024-01-30T05:26:11;0.30;89.10
63445;DHT22;49573;47.682;9.170;2024-01-30T05:28:57;0.30;89.50
63445;DHT22;49573;47.682;9.170;2024-01-30T05:31:43;0.30;89.70
63445;DHT22;49573;47.682;9.170;2024-01-30T05:34:29;0.50;89.80
63445;DHT22;49573;47.682;9.170;2024-01-30T05:37:15;0.40;89.50
63445;DHT22;49573;47.682;9.170;2024-01-30T05:40:02;0.40;89.60
63445;DHT22;49573;47.682;9.170;2024-01-30T05:42:50;0.50;89.60
63445;DHT22;49573;47.682;9.170;2024-01-30T05:45:36;0.30;89.30
63445;DHT22;49573;47.682;9.170;2024-01-30T05:48:22;0.20;89.70
63445;DHT22;49573;47.682;9.170;2024-01-30T05:51:08;0.30;90.00
63445;DHT22;49573;47.682;9.170;2024-01-30T05:53:54;0.40;89.90
63445;DHT22;49573;47.682;9.170;2024-01-30T05:56:39;0.40;89.80
63445;DHT22;49573;47.682;9.170;2024-01-30T05:59:27;0.30;89.60
63445;DHT22;49573;47.682;9.170;2024-01-30T06:02:13;0.30;89.60
63445;DHT22;49573;47.682;9.170;2024-01-30T06:04:58;0.30;89.80
63445;DHT22;49573;47.682;9.170;2024-01-30T06:07:44;0.30;89.90
63445;DHT22;49573;47.682;9.170;2024-01-30T06:10:30;0.40;90.00
63445;DHT22;49573;47.682;9.170;2024-01-30T06:13:16;0.40;89.60
63445;DHT22;49573;47.682;9.170;2024-01-30T06:16:03;0.40;89.60
63445;DHT22;49573;47.682;9.170;2024-01-30T06:18:49;0.50;89.90
63445;DHT22;49573;47.682;9.170;2024-01-30T06:21:35;0.50;89.80
63445;DHT22;49573;47.682;9.170;2024-01-30T06:24:24;0.50;89.70
63445;DHT22;49573;47.682;9.170;2024-01-30T06:27:10;0.30;89.30
63445;DHT22;49573;47.682;9.170;2024-01-30T06:29:56;0.30;89.80
63445;DHT22;49573;47.682;9.170;2024-01-30T06:32:43;0.50;89.90
63445;DHT22;49573;47.682;9.170;2024-01-30T06:35:29;0.50;89.30
63445;DHT22;49573;47.682;9.170;2024-01-30T06:38:15;0.50;89.50
63445;DHT22;49573;47.682;9.170;2024-01-30T06:41:01;0.50;89.60
63445;DHT22;49573;47.682;9.170;2024-01-30T06:43:47;0.50;89.60
63445;DHT22;49573;47.682;9.170;2024-01-30T06:46:33;0.50;89.60
63445;DHT22;49573;47.682;9.170;2024-01-30T06:49:21;0.40;89.50
63445;DHT22;49573;47.682;9.170;2024-01-30T06:52:07;0.30;89.80
63445;DHT22;49573;47.682;9.170;2024-01-30T06:54:53;0.40;89.90
63445;DHT22;49573;47.682;9.170;2024-01-30T06:57:40;0.30;90.20
63445;DHT22;49573;47.682;9.170;2024-01-30T07:00:26;0.40;90.00
63445;DHT22;49573;47.682;9.170;2024-01-30T07:03:11;0.50;90.00
63445;DHT22;49573;47.682;9.170;2024-01-30T07:05:59;0.70;90.00
63445;DHT22;49573;47.682;9.170;2024-01-30T07:08:45;0.80;89.80
63445;DHT22;49573;47.682;9.170;2024-01-30T07:11:30;0.80;89.50
63445;DHT22;49573;47.682;9.170;2024-01-30T07:14:17;0.80;89.50
63445;DHT22;49573;47.682;9.170;2024-01-30T07:17:03;0.80;89.30
63445;DHT22;49573;47.682;9.170;2024-01-30T07:19:49;0.80;89.30
63445;DHT22;49573;47.682;9.170;2024-01-30T07:22:37;0.90;89.40
63445;DHT22;49573;47.682;9.170;2024-01-30T07:25:22;0.90;89.40
63445;DHT22;49573;47.682;9.170;2024-01-30T07:28:12;1.00;89.40
63445;DHT22;49573;47.682;9.170;2024-01-30T07:30:59;1.00;89.20
63445;DHT22;49573;47.682;9.170;2024-01-30T07:33:45;1.00;88.90
63445;DHT22;49573;47.682;9.170;2024-01-30T07:36:31;0.90;88.80
63445;DHT22;49573;47.682;9.170;2024-01-30T07:39:18;1.00;89.00
63445;DHT22;49573;47.682;9.170;2024-01-30T07:42:04;1.00;88.80
63445;DHT22;49573;47.682;9.170;2024-01-30T07:44:50;1.00;89.00
63445;DHT22;49573;47.682;9.170;2024-01-30T07:47:36;1.10;88.90
63445;DHT22;49573;47.682;9.170;2024-01-30T07:50:21;1.10;88.90
63445;DHT22;49573;47.682;9.170;2024-01-30T07:53:07;1.00;88.80
63445;DHT22;49573;47.682;9.170;2024-01-30T07:55:54;1.00;88.80
63445;DHT22;49573;47.682;9.170;2024-01-30T07:58:40;1.00;88.80
63445;DHT22;49573;47.682;9.170;2024-01-30T08:01:26;1.00;88.60
63445;DHT22;49573;47.682;9.170;2024-01-30T08:04:13;1.10;88.70
63445;DHT22;49573;47.682;9.170;2024-01-30T08:06:59;1.00;88.60
63445;DHT22;49573;47.682;9.170;2024-01-30T08:09:45;1.20;89.00
63445;DHT22;49573;47.682;9.170;2024-01-30T08:12:32;1.20;88.50
63445;DHT22;49573;47.682;9.170;2024-01-30T08:15:18;1.30;88.50
63445;DHT22;49573;47.682;9.170;2024-01-30T08:18:04;1.30;88.30
63445;DHT22;49573;47.682;9.170;2024-01-30T08:20:51;1.30;88.40
63445;DHT22;49573;47.682;9.170;2024-01-30T08:23:37;1.30;88.40
63445;DHT22;49573;47.682;9.170;2024-01-30T08:26:23;1.50;88.50
63445;DHT22;49573;47.682;9.170;2024-01-30T08:29:11;1.40;88.20
63445;DHT22;49573;47.682;9.170;2024-01-30T08:31:57;1.40;88.50
63445;DHT22;49573;47.682;9.170;2024-01-30T08:34:44;1.50;88.30
63445;DHT22;49573;47.682;9.170;2024-01-30T08:37:30;1.50;88.30
63445;DHT22;49573;47.682;9.170;2024-01-30T08:40:16;1.60;87.90
63445;DHT22;49573;47.682;9.170;2024-01-30T08:43:02;1.60;88.10
63445;DHT22;49573;47.682;9.170;2024-01-30T08:45:50;1.60;87.90
63445;DHT22;49573;47.682;9.170;2024-01-30T08:48:36;1.70;87.80
63445;DHT22;49573;47.682;9.170;2024-01-30T08:51:22;1.60;87.90
63445;DHT22;49573;47.682;9.170;2024-01-30T08:54:08;1.70;87.80
63445;DHT22;49573;47.682;9.170;2024-01-30T08:56:54;1.70;87.60
63445;DHT22;49573;47.682;9.170;2024-01-30T08:59:42;1.70;87.70
63445;DHT22;49573;47.682;9.170;2024-01-30T09:02:31;1.80;87.50
63445;DHT22;49573;47.682;9.170;2024-01-30T09:05:17;1.90;87.70
63445;DHT22;49573;47.682;9.170;2024-01-30T09:08:03;1.70;87.30
63445;DHT22;49573;47.682;9.170;2024-01-30T09:10:50;1.80;87.40
63445;DHT22;49573;47.682;9.170;2024-01-30T09:13:35;1.90;87.60
63445;DHT22;49573;47.682;9.170;2024-01-30T09:16:22;2.00;87.50
63445;DHT22;49573;47.682;9.170;2024-01-30T09:19:09;2.10;87.40
63445;DHT22;49573;47.682;9.170;2024-01-30T09:21:55;2.10;87.00
63445;DHT22;49573;47.682;9.170;2024-01-30T09:24:41;2.00;86.50
63445;DHT22;49573;47.682;9.170;2024-01-30T09:27:27;1.90;86.30
63445;DHT22;49573;47.682;9.170;2024-01-30T09:30:13;2.00;86.40
63445;DHT22;49573;47.682;9.170;2024-01-30T09:32:59;2.00;86.80
63445;DHT22;49573;47.682;9.170;2024-01-30T09:35:46;2.00;86.50
63445;DHT22;49573;47.682;9.170;2024-01-30T09:38:32;2.10;86.80
63445;DHT22;49573;47.682;9.170;2024-01-30T09:41:18;2.10;86.90
63445;DHT22;49573;47.682;9.170;2024-01-30T09:44:04;2.10;86.60
63445;DHT22;49573;47.682;9.170;2024-01-30T09:46:51;2.20;86.80
63445;DHT22;49573;47.682;9.170;2024-01-30T09:49:37;2.20;86.50
63445;DHT22;49573;47.682;9.170;2024-01-30T09:52:25;2.30;87.00
63445;DHT22;49573;47.682;9.170;2024-01-30T09:55:11;2.40;86.60
63445;DHT22;49573;47.682;9.170;2024-01-30T09:57:57;2.40;86.60
63445;DHT22;49573;47.682;9.170;2024-01-30T10:00:42;2.50;86.70
63445;DHT22;49573;47.682;9.170;2024-01-30T10:03:28;2.60;86.80
63445;DHT22;49573;47.682;9.170;2024-01-30T10:06:14;2.60;86.20
63445;DHT22;49573;47.682;9.170;2024-01-30T10:09:01;2.70;86.20
63445;DHT22;49573;47.682;9.170;2024-01-30T10:11:48;2.70;86.10
63445;DHT22;49573;47.682;9.170;2024-01-30T10:14:37;2.70;85.60
63445;DHT22;49573;47.682;9.170;2024-01-30T10:17:24;2.70;85.60
63445;DHT22;49573;47.682;9.170;2024-01-30T10:20:10;2.70;85.70
63445;DHT22;49573;47.682;9.170;2024-01-30T10:22:57;2.70;85.50
63445;DHT22;49573;47.682;9.170;2024-01-30T10:25:44;2.80;85.10
63445;DHT22;49573;47.682;9.170;2024-01-30T10:28:30;2.70;85.00
63445;DHT22;49573;47.682;9.170;2024-01-30T10:31:16;2.70;85.50
63445;DHT22;49573;47.682;9.170;2024-01-30T10:34:02;2.80;85.40
63445;DHT22;49573;47.682;9.170;2024-01-30T10:36:48;2.90;85.60
63445;DHT22;49573;47.682;9.170;2024-01-30T10:39:36;2.80;85.60
63445;DHT22;49573;47.682;9.170;2024-01-30T10:42:25;2.90;85.50
63445;DHT22;49573;47.682;9.170;2024-01-30T10:45:12;3.00;85.80
63445;DHT22;49573;47.682;9.170;2024-01-30T10:47:58;3.00;85.80
63445;DHT22;49573;47.682;9.170;2024-01-30T10:50:45;3.10;85.80
63445;DHT22;49573;47.682;9.170;2024-01-30T10:53:31;2.90;84.90
63445;DHT22;49573;47.682;9.170;2024-01-30T10:56:18;2.90;85.60
63445;DHT22;49573;47.682;9.170;2024-01-30T10:59:06;3.00;85.60
63445;DHT22;49573;47.682;9.170;2024-01-30T11:01:53;3.00;85.60
63445;DHT22;49573;47.682;9.170;2024-01-30T11:04:40;3.30;85.90
63445;DHT22;49573;47.682;9.170;2024-01-30T11:07:27;3.30;85.70
63445;DHT22;49573;47.682;9.170;2024-01-30T11:10:13;3.50;85.40
63445;DHT22;49573;47.682;9.170;2024-01-30T11:13:09;3.60;85.40
63445;DHT22;49573;47.682;9.170;2024-01-30T11:16:01;3.70;85.00
63445;DHT22;49573;47.682;9.170;2024-01-30T11:18:49;3.70;84.20
63445;DHT22;49573;47.682;9.170;2024-01-30T11:21:40;3.80;84.20
63445;DHT22;49573;47.682;9.170;2024-01-30T11:24:25;3.70;84.50
63445;DHT22;49573;47.682;9.170;2024-01-30T11:27:12;3.80;84.40
63445;DHT22;49573;47.682;9.170;2024-01-30T11:30:00;4.10;84.30
63445;DHT22;49573;47.682;9.170;2024-01-30T11:32:48;4.00;83.00
63445;DHT22;49573;47.682;9.170;2024-01-30T11:35:44;4.10;83.70
63445;DHT22;49573;47.682;9.170;2024-01-30T11:38:30;4.10;83.20
63445;DHT22;49573;47.682;9.170;2024-01-30T11:41:16;4.30;83.90
63445;DHT22;49573;47.682;9.170;2024-01-30T11:44:03;4.50;83.00
63445;DHT22;49573;47.682;9.170;2024-01-30T11:46:51;4.70;82.50
63445;DHT22;49573;47.682;9.170;2024-01-30T11:49:38;5.10;82.30
63445;DHT22;49573;47.682;9.170;2024-01-30T11:52:24;5.40;82.50
63445;DHT22;49573;47.682;9.170;2024-01-30T11:55:10;5.90;79.90
63445;DHT22;49573;47.682;9.170;2024-01-30T11:57:57;6.20;80.50
63445;DHT22;49573;47.682;9.170;2024-01-30T12:00:52;6.20;77.90
63445;DHT22;49573;47.682;9.170;2024-01-30T12:03:38;6.50;79.10
63445;DHT22;49573;47.682;9.170;2024-01-30T12:06:25;6.90;77.50
63445;DHT22;49573;47.682;9.170;2024-01-30T12:09:11;7.20;77.60
63445;DHT22;49573;47.682;9.170;2024-01-30T12:11:59;7.40;77.30
63445;DHT22;49573;47.682;9.170;2024-01-30T12:14:45;7.20;75.20
63445;DHT22;49573;47.682;9.170;2024-01-30T12:17:32;7.20;76.50
63445;DHT22;49573;47.682;9.170;2024-01-30T12:20:19;7.40;76.10
63445;DHT22;49573;47.682;9.170;2024-01-30T12:23:06;8.00;75.90
63445;DHT22;49573;47.682;9.170;2024-01-30T12:25:52;8.70;72.10
63445;DHT22;49573;47.682;9.170;2024-01-30T12:28:47;9.20;73.20
63445;DHT22;49573;47.682;9.170;2024-01-30T12:31:33;8.80;72.30
63445;DHT22;49573;47.682;9.170;2024-01-30T12:34:19;8.80;71.40
63445;DHT22;49573;47.682;9.170;2024-01-30T12:37:06;8.60;70.80
63445;DHT22;49573;47.682;9.170;2024-01-30T12:39:55;8.30;71.40
63445;DHT22;49573;47.682;9.170;2024-01-30T12:42:41;8.40;72.50
63445;DHT22;49573;47.682;9.170;2024-01-30T12:45:28;8.40;72.00
63445;DHT22;49573;47.682;9.170;2024-01-30T12:48:14;8.60;72.60
63445;DHT22;49573;47.682;9.170;2024-01-30T12:51:01;8.40;71.20
63445;DHT22;49573;47.682;9.170;2024-01-30T12:53:47;8.70;72.40
63445;DHT22;49573;47.682;9.170;2024-01-30T12:56:35;8.90;70.10
63445;DHT22;49573;47.682;9.170;2024-01-30T12:59:21;8.90;70.70
63445;DHT22;49573;47.682;9.170;2024-01-30T13:02:07;8.80;70.60
63445;DHT22;49573;47.682;9.170;2024-01-30T13:04:53;9.00;70.50
63445;DHT22;49573;47.682;9.170;2024-01-30T13:07:39;9.10;69.60
63445;DHT22;49573;47.682;9.170;2024-01-30T13:10:25;9.70;68.50
63445;DHT22;49573;47.682;9.170;2024-01-30T13:13:12;9.90;69.40
63445;DHT22;49573;47.682;9.170;2024-01-30T13:15:58;9.90;68.20
63445;DHT22;49573;47.682;9.170;2024-01-30T13:18:44;10.30;67.70
63445;DHT22;49573;47.682;9.170;2024-01-30T13:21:30;10.30;65.60
63445;DHT22;49573;47.682;9.170;2024-01-30T13:24:16;10.90;66.40
63445;DHT22;49573;47.682;9.170;2024-01-30T13:27:02;11.80;65.10
63445;DHT22;49573;47.682;9.170;2024-01-30T13:29:52;11.60;63.90
63445;DHT22;49573;47.682;9.170;2024-01-30T13:32:38;11.10;62.90
63445;DHT22;49573;47.682;9.170;2024-01-30T13:35:24;10.80;63.30
63445;DHT22;49573;47.682;9.170;2024-01-30T13:38:10;10.60;64.10
63445;DHT22;49573;47.682;9.170;2024-01-30T13:40:56;10.40;65.40
63445;DHT22;49573;47.682;9.170;2024-01-30T13:43:41;10.80;64.10
63445;DHT22;49573;47.682;9.170;2024-01-30T13:46:29;12.30;62.80
63445;DHT22;49573;47.682;9.170;2024-01-30T13:50:58;15.00;59.20
63445;DHT22;49573;47.682;9.170;2024-01-30T13:53:45;15.80;55.80
63445;DHT22;49573;47.682;9.170;2024-01-30T13:56:31;16.30;52.80
63445;DHT22;49573;47.682;9.170;2024-01-30T13:59:17;17.20;51.60
63445;DHT22;49573;47.682;9.170;2024-01-30T14:02:09;17.60;49.10
63445;DHT22;49573;47.682;9.170;2024-01-30T14:04:55;17.50;47.50
63445;DHT22;49573;47.682;9.170;2024-01-30T14:07:43;17.70;48.30
63445;DHT22;49573;47.682;9.170;2024-01-30T14:10:29;18.00;46.90
63445;DHT22;49573;47.682;9.170;2024-01-30T14:13:16;17.80;47.30
63445;DHT22;49573;47.682;9.170;2024-01-30T14:16:02;16.80;47.50
63445;DHT22;49573;47.682;9.170;2024-01-30T14:18:48;16.20;48.40
63445;DHT22;49573;47.682;9.170;2024-01-30T14:21:34;15.70;49.00
63445;DHT22;49573;47.682;9.170;2024-01-30T14:24:22;15.10;50.90
63445;DHT22;49573;47.682;9.170;2024-01-30T14:27:08;15.00;50.80
63445;DHT22;49573;47.682;9.170;2024-01-30T14:29:55;14.80;52.10
63445;DHT22;49573;47.682;9.170;2024-01-30T14:32:42;14.30;52.00
63445;DHT22;49573;47.682;9.170;2024-01-30T14:35:30;15.30;52.00
63445;DHT22;49573;47.682;9.170;2024-01-30T14:38:16;16.30;49.70
63445;DHT22;49573;47.682;9.170;2024-01-30T14:41:03;17.30;48.90
63445;DHT22;49573;47.682;9.170;2024-01-30T14:43:50;17.30;47.20
63445;DHT22;49573;47.682;9.170;2024-01-30T14:46:36;15.90;48.50
63445;DHT22;49573;47.682;9.170;2024-01-30T14:49:22;15.20;50.20
63445;DHT22;49573;47.682;9.170;2024-01-30T14:52:08;14.30;51.10
63445;DHT22;49573;47.682;9.170;2024-01-30T14:54:56;13.80;52.30
63445;DHT22;49573;47.682;9.170;2024-01-30T14:57:44;13.20;53.80
63445;DHT22;49573;47.682;9.170;2024-01-30T15:00:31;12.50;55.30
63445;DHT22;49573;47.682;9.170;2024-01-30T15:03:17;12.10;56.30
63445;DHT22;49573;47.682;9.170;2024-01-30T15:06:04;11.50;57.80
63445;DHT22;49573;47.682;9.170;2024-01-30T15:08:50;11.40;58.70
63445;DHT22;49573;47.682;9.170;2024-01-30T15:11:36;10.90;59.30
63445;DHT22;49573;47.682;9.170;2024-01-30T15:14:24;10.60;60.30
63445;DHT22;49573;47.682;9.170;2024-01-30T15:17:10;10.40;61.20
63445;DHT22;49573;47.682;9.170;2024-01-30T15:19:56;10.10;61.80
63445;DHT22;49573;47.682;9.170;2024-01-30T15:22:44;9.90;63.00
63445;DHT22;49573;47.682;9.170;2024-01-30T15:25:30;9.40;63.80
63445;DHT22;49573;47.682;9.170;2024-01-30T15:28:16;9.00;65.00
63445;DHT22;49573;47.682;9.170;2024-01-30T15:31:04;8.90;65.30
63445;DHT22;49573;47.682;9.170;2024-01-30T15:33:51;8.70;66.00
63445;DHT22;49573;47.682;9.170;2024-01-30T15:36:37;8.30;67.10
63445;DHT22;49573;47.682;9.170;2024-01-30T15:39:23;8.10;68.00
63445;DHT22;49573;47.682;9.170;2024-01-30T15:42:09;7.80;68.90
63445;DHT22;49573;47.682;9.170;2024-01-30T15:44:55;7.70;69.50
63445;DHT22;49573;47.682;9.170;2024-01-30T15:47:43;7.50;70.00
63445;DHT22;49573;47.682;9.170;2024-01-30T15:50:29;7.30;70.60
63445;DHT22;49573;47.682;9.170;2024-01-30T15:53:15;7.20;71.50
63445;DHT22;49573;47.682;9.170;2024-01-30T15:56:01;7.00;72.00
63445;DHT22;49573;47.682;9.170;2024-01-30T15:58:47;6.90;72.30
63445;DHT22;49573;47.682;9.170;2024-01-30T16:01:37;6.90;72.60
63445;DHT22;49573;47.682;9.170;2024-01-30T16:04:25;6.80;72.90
63445;DHT22;49573;47.682;9.170;2024-01-30T16:07:11;6.60;73.40
63445;DHT22;49573;47.682;9.170;2024-01-30T16:09:57;6.60;73.50
63445;DHT22;49573;47.682;9.170;2024-01-30T16:12:43;6.50;74.00
63445;DHT22;49573;47.682;9.170;2024-01-30T16:15:32;6.30;74.70
63445;DHT22;49573;47.682;9.170;2024-01-30T16:18:18;6.20;75.00
63445;DHT22;49573;47.682;9.170;2024-01-30T16:21:06;6.20;74.50
63445;DHT22;49573;47.682;9.170;2024-01-30T16:23:52;6.00;75.40
63445;DHT22;49573;47.682;9.170;2024-01-30T16:26:39;5.90;75.70
63445;DHT22;49573;47.682;9.170;2024-01-30T16:29:25;5.80;75.90
63445;DHT22;49573;47.682;9.170;2024-01-30T16:32:11;5.70;76.10
63445;DHT22;49573;47.682;9.170;2024-01-30T16:34:57;5.60;76.60
63445;DHT22;49573;47.682;9.170;2024-01-30T16:37:45;5.60;76.80
63445;DHT22;49573;47.682;9.170;2024-01-30T16:40:31;5.50;76.90
63445;DHT22;49573;47.682;9.170;2024-01-30T16:43:19;5.40;77.40
63445;DHT22;49573;47.682;9.170;2024-01-30T16:46:05;5.40;77.40
63445;DHT22;49573;47.682;9.170;2024-01-30T16:48:51;5.30;77.80
63445;DHT22;49573;47.682;9.170;2024-01-30T16:51:37;5.20;78.10
63445;DHT22;49573;47.682;9.170;2024-01-30T16:54:25;5.20;78.50
63445;DHT22;49573;47.682;9.170;2024-01-30T16:57:11;5.10;78.60
63445;DHT22;49573;47.682;9.170;2024-01-30T16:59:57;5.10;78.80
63445;DHT22;49573;47.682;9.170;2024-01-30T17:02:43;5.00;79.20
63445;DHT22;49573;47.682;9.170;2024-01-30T17:05:30;4.90;79.40
63445;DHT22;49573;47.682;9.170;2024-01-30T17:08:17;4.90;79.50
63445;DHT22;49573;47.682;9.170;2024-01-30T17:11:04;4.80;80.00
63445;DHT22;49573;47.682;9.170;2024-01-30T17:13:50;4.80;80.40
63445;DHT22;49573;47.682;9.170;2024-01-30T17:16:36;4.80;80.40
63445;DHT22;49573;47.682;9.170;2024-01-30T17:19:22;4.80;80.60
63445;DHT22;49573;47.682;9.170;2024-01-30T17:22:08;4.80;80.40
63445;DHT22;49573;47.682;9.170;2024-01-30T17:24:54;4.80;80.60
63445;DHT22;49573;47.682;9.170;2024-01-30T17:27:42;4.80;80.50
63445;DHT22;49573;47.682;9.170;2024-01-30T17:30:28;4.80;80.50
63445;DHT22;49573;47.682;9.170;2024-01-30T17:33:14;4.70;80.70
63445;DHT22;49573;47.682;9.170;2024-01-30T17:36:01;4.70;80.50
63445;DHT22;49573;47.682;9.170;2024-01-30T17:38:49;4.70;80.60
63445;DHT22;49573;47.682;9.170;2024-01-30T17:41:35;4.70;80.90
63445;DHT22;49573;47.682;9.170;2024-01-30T17:44:23;4.60;81.00
63445;DHT22;49573;47.682;9.170;2024-01-30T17:47:09;4.60;81.00
63445;DHT22;49573;47.682;9.170;2024-01-30T17:49:56;4.60;81.10